Time;durP1;ratioP1;P1;durP2;ratioP2;P2;SDS_P1;SDS_P2;PMS_P1;PMS_P2;Temp;Humidity;BMP_temperature;BMP_pressure;BME280_temperature;BME280_humidity;BME280_pressure;Samples;Min_cycle;Max_cycle;Signal;HPM_P1;HPM_P2
2021/03/01 00:01:07;;;;;;;17.33;14.10;;;;;;;2.73;100.00;102021.02;255746;1111;104344;-77
2021/03/01 00:06:09;;;;;;;15.80;12.23;;;;;;;2.77;100.00;102023.73;253764;1112;104678;-79
2021/03/01 00:11:10;;;;;;;16.65;12.90;;;;;;;2.78;100.00;102038.69;253322;1111;104344;-75
2021/03/01 00:16:11;;;;;;;16.12;14.43;;;;;;;2.79;100.00;102034.29;253214;1110;104700;-77
2021/03/01 00:21:12;;;;;;;17.40;13.33;;;;;;;2.67;100.00;102030.58;253244;1112;104358;-78
2021/03/01 00:26:14;;;;;;;14.87;12.00;;;;;;;2.71;100.00;102045.56;253379;1112;105653;-77
2021/03/01 00:31:15;;;;;;;18.52;13.75;;;;;;;2.75;100.00;102045.64;253306;1111;104347;-77
2021/03/01 00:36:17;;;;;;;15.60;14.00;;;;;;;2.70;100.00;102048.18;253235;1111;104354;-78
2021/03/01 00:41:18;;;;;;;17.73;14.15;;;;;;;2.60;100.00;102043.58;253240;1110;104294;-77
2021/03/01 00:46:19;;;;;;;16.37;12.60;;;;;;;2.69;100.00;102036.73;253104;1112;104379;-77
2021/03/01 00:51:21;;;;;;;15.50;12.93;;;;;;;2.62;100.00;102037.48;253129;1111;104352;-76
2021/03/01 00:56:22;;;;;;;14.80;11.73;;;;;;;2.47;100.00;102039.81;252828;1111;104329;-76
2021/03/01 01:01:23;;;;;;;16.67;13.30;;;;;;;2.48;100.00;102039.86;252945;1111;104277;-76
2021/03/01 01:06:24;;;;;;;16.07;12.60;;;;;;;2.62;100.00;102039.23;253238;1112;104354;-77
2021/03/01 01:11:25;;;;;;;15.63;12.28;;;;;;;2.66;100.00;102044.60;253476;1111;104348;-77
2021/03/01 01:16:26;;;;;;;15.68;13.03;;;;;;;2.63;100.00;102041.89;253371;1111;104749;-77
2021/03/01 01:21:28;;;;;;;18.40;13.30;;;;;;;2.57;100.00;102056.70;253311;1112;104274;-75
2021/03/01 01:26:30;;;;;;;17.05;12.58;;;;;;;2.68;100.00;102060.42;252362;1112;104368;-78
2021/03/01 01:31:31;;;;;;;16.97;13.27;;;;;;;2.67;100.00;102056.01;253161;1110;104342;-76
2021/03/01 01:36:32;;;;;;;18.92;14.47;;;;;;;2.48;100.00;102050.39;252426;1112;104303;-77
2021/03/01 01:41:33;;;;;;;16.93;13.60;;;;;;;2.52;100.00;102048.70;252833;1110;104617;-78
2021/03/01 01:46:35;;;;;;;15.38;13.13;;;;;;;2.60;100.00;102060.28;253021;1111;104709;-78
2021/03/01 01:51:37;;;;;;;20.15;15.25;;;;;;;2.54;100.00;102062.77;253257;1112;104344;-77
2021/03/01 01:56:40;;;;;;;17.62;13.62;;;;;;;2.47;100.00;102063.50;256103;1111;104347;-77
2021/03/01 02:01:43;;;;;;;15.40;13.22;;;;;;;2.57;100.00;102065.47;256902;1111;104322;-77
2021/03/01 02:06:56;;;;;;;16.00;14.10;;;;;;;2.48;100.00;102065.28;258899;1111;104354;-76
2021/03/01 02:12:09;;;;;;;15.78;12.95;;;;;;;2.49;100.00;102067.06;254757;1110;104328;-78
2021/03/01 02:17:10;;;;;;;19.07;12.90;;;;;;;2.48;100.00;102068.81;253307;1109;104373;-77
2021/03/01 02:22:12;;;;;;;15.83;13.18;;;;;;;2.50;100.00;102069.72;252877;1111;104220;-78
2021/03/01 02:27:18;;;;;;;18.30;13.25;;;;;;;2.38;100.00;102074.73;252808;1112;104425;-78
2021/03/01 02:32:19;;;;;;;20.72;16.37;;;;;;;2.33;100.00;102073.77;253264;1112;104337;-77
2021/03/01 02:37:24;;;;;;;18.17;13.53;;;;;;;2.35;100.00;102077.32;253160;1111;104405;-78
2021/03/01 02:42:28;;;;;;;12.23;10.95;;;;;;;2.45;100.00;102073.13;253357;1111;104338;-78
2021/03/01 02:47:30;;;;;;;19.40;14.85;;;;;;;2.39;100.00;102072.16;252912;1110;106303;-77
2021/03/01 02:52:31;;;;;;;16.42;13.50;;;;;;;2.25;100.00;102073.61;253295;1111;104402;-77
2021/03/01 02:57:34;;;;;;;17.12;14.28;;;;;;;2.26;100.00;102064.83;252918;1111;104345;-77
2021/03/01 03:02:38;;;;;;;21.60;16.70;;;;;;;2.38;100.00;102073.02;253218;1112;104339;-76
2021/03/01 03:07:42;;;;;;;19.00;17.00;;;;;;;2.42;100.00;102071.33;252716;1111;104350;-77
2021/03/01 03:12:45;;;;;;;24.12;19.57;;;;;;;2.35;100.00;102078.20;253251;1111;104271;-77
2021/03/01 03:17:48;;;;;;;18.65;15.63;;;;;;;2.37;100.00;102080.84;253196;1111;104887;-77
2021/03/01 03:22:49;;;;;;;16.87;14.43;;;;;;;2.28;100.00;102083.31;253149;1111;104883;-77
2021/03/01 03:27:52;;;;;;;18.33;15.73;;;;;;;2.36;100.00;102087.87;252554;1111;104268;-77
2021/03/01 03:32:54;;;;;;;20.85;16.35;;;;;;;2.32;100.00;102088.67;253265;1111;104740;-77
2021/03/01 03:38:07;;;;;;;22.55;17.65;;;;;;;2.35;100.00;102099.25;253330;1112;104286;-76
2021/03/01 03:43:11;;;;;;;26.60;16.87;;;;;;;2.30;100.00;102107.89;252934;1111;104390;-78
2021/03/01 03:48:14;;;;;;;17.92;12.60;;;;;;;2.39;100.00;102105.47;253290;1111;104347;-77
2021/03/01 03:53:17;;;;;;;19.98;14.25;;;;;;;2.48;100.00;102110.94;254877;1112;104262;-77
2021/03/01 03:58:22;;;;;;;18.37;14.13;;;;;;;2.39;100.00;102111.64;253267;1111;104351;-77
2021/03/01 04:03:24;;;;;;;17.42;13.95;;;;;;;2.46;100.00;102112.64;253459;1112;104275;-78
2021/03/01 04:08:29;;;;;;;18.87;14.55;;;;;;;2.46;100.00;102117.03;253106;1110;104792;-77
2021/03/01 04:13:32;;;;;;;18.05;14.15;;;;;;;2.45;100.00;102112.62;253154;1110;104343;-77
2021/03/01 04:18:35;;;;;;;16.65;14.50;;;;;;;2.47;100.00;102110.88;253129;1112;104328;-78
2021/03/01 04:23:40;;;;;;;18.62;13.48;;;;;;;2.43;100.00;102107.33;253348;1111;104316;-76
2021/03/01 04:28:44;;;;;;;17.20;13.97;;;;;;;2.49;100.00;102110.09;253275;1111;104316;-76
2021/03/01 04:33:48;;;;;;;17.45;14.15;;;;;;;2.57;100.00;102115.50;253373;1111;104316;-77
2021/03/01 04:38:51;;;;;;;18.57;14.13;;;;;;;2.48;100.00;102115.30;253113;1111;104328;-77
2021/03/01 04:43:54;;;;;;;21.57;15.17;;;;;;;2.29;100.00;102107.02;253109;1111;104386;-77
2021/03/01 04:48:56;;;;;;;28.55;21.23;;;;;;;2.27;100.00;102108.72;253418;1111;104316;-76
2021/03/01 04:54:01;;;;;;;24.30;18.20;;;;;;;2.28;100.00;102123.66;253214;1111;104345;-79
2021/03/01 04:59:03;;;;;;;20.92;17.30;;;;;;;2.20;100.00;102119.96;253203;1111;104684;-75
2021/03/01 05:04:05;;;;;;;25.17;18.30;;;;;;;2.17;100.00;102114.66;252905;1111;104675;-76
2021/03/01 05:09:07;;;;;;;28.98;19.40;;;;;;;2.18;100.00;102133.09;253058;1111;104290;-77
2021/03/01 05:14:09;;;;;;;20.82;17.27;;;;;;;2.13;100.00;102133.83;253241;1112;104239;-77
2021/03/01 05:19:10;;;;;;;18.55;15.15;;;;;;;2.17;100.00;102133.94;253337;1111;104265;-76
2021/03/01 05:24:11;;;;;;;18.07;13.58;;;;;;;2.37;100.00;102138.75;254783;1111;104265;-77
2021/03/01 05:29:12;;;;;;;21.68;15.55;;;;;;;2.39;100.00;102152.84;258467;1112;103358;-74
2021/03/01 05:34:14;;;;;;;19.55;14.47;;;;;;;2.38;100.00;102156.33;257143;1112;104277;-75
2021/03/01 05:39:17;;;;;;;13.60;10.60;;;;;;;2.28;100.00;102163.13;255784;1110;104368;-75
2021/03/01 05:44:18;;;;;;;16.52;11.80;;;;;;;2.23;100.00;102170.05;255147;1111;104341;-76
2021/03/01 05:49:21;;;;;;;12.93;9.93;;;;;;;2.04;100.00;102172.22;253903;1111;104622;-76
2021/03/01 05:54:27;;;;;;;15.53;10.32;;;;;;;2.09;100.00;102169.70;255363;1112;104348;-76
2021/03/01 05:59:29;;;;;;;15.03;11.83;;;;;;;2.09;100.00;102189.87;253355;1111;104335;-78
2021/03/01 06:04:31;;;;;;;15.23;11.12;;;;;;;2.09;100.00;102201.28;253520;1111;104401;-74
2021/03/01 06:09:32;;;;;;;15.83;13.62;;;;;;;2.22;100.00;102199.84;253352;1112;104328;-75
2021/03/01 06:14:34;;;;;;;14.98;12.15;;;;;;;2.08;100.00;102204.75;253709;1112;104425;-81
2021/03/01 06:19:46;;;;;;;18.65;12.75;;;;;;;2.00;100.00;102196.69;253406;1112;104431;-77
2021/03/01 06:25:08;;;;;;;14.45;11.00;;;;;;;2.05;100.00;102208.20;253430;1110;104724;-75
2021/03/01 06:30:13;;;;;;;12.05;9.73;;;;;;;2.20;100.00;102219.95;253393;1110;104341;-79
2021/03/01 06:35:30;;;;;;;14.33;10.60;;;;;;;2.11;100.00;102212.73;253421;1111;104306;-77
2021/03/01 06:40:31;;;;;;;13.83;9.85;;;;;;;1.93;100.00;102220.19;253725;1112;104393;-83
2021/03/01 06:45:32;;;;;;;15.55;11.28;;;;;;;1.99;100.00;102215.95;253365;1111;104615;-76
2021/03/01 06:50:42;;;;;;;16.30;11.08;;;;;;;2.09;100.00;102224.08;253660;1112;104357;-77
2021/03/01 06:55:58;;;;;;;20.82;12.75;;;;;;;1.98;100.00;102236.97;253900;1111;104794;-76
2021/03/01 07:01:06;;;;;;;;;;;;;;;1.85;100.00;102243.65;253554;1112;104839;-77
2021/03/01 07:06:08;;;;;;;14.18;9.53;;;;;;;1.97;100.00;102228.20;253310;1112;104280;-76
2021/03/01 07:11:28;;;;;;;10.70;7.60;;;;;;;1.80;100.00;102242.65;253568;1112;104373;-81
2021/03/01 07:16:35;;;;;;;14.53;11.05;;;;;;;1.87;100.00;102236.70;253520;1110;104274;-79
2021/03/01 07:21:38;;;;;;;15.28;10.35;;;;;;;1.91;100.00;102243.80;253663;1111;104469;-80
2021/03/01 07:26:41;;;;;;;16.87;10.30;;;;;;;1.97;100.00;102232.55;253323;1111;104269;-79
2021/03/01 07:31:55;;;;;;;17.07;11.37;;;;;;;1.85;100.00;102227.87;253322;1112;105396;-79
2021/03/01 07:36:58;;;;;;;13.58;10.48;;;;;;;1.72;100.00;102232.82;253487;1112;104390;-79
2021/03/01 07:42:00;;;;;;;14.33;10.08;;;;;;;1.81;100.00;102241.80;253983;1112;104319;-80
2021/03/01 07:47:05;;;;;;;11.45;7.37;;;;;;;1.91;100.00;102251.69;253858;1112;104354;-78
2021/03/01 07:52:08;;;;;;;16.73;11.68;;;;;;;1.76;100.00;102244.30;254012;1111;104223;-79
2021/03/01 07:57:09;;;;;;;17.90;11.95;;;;;;;2.01;100.00;102251.09;253783;1112;104434;-79
2021/03/01 08:02:21;;;;;;;17.27;10.40;;;;;;;1.82;100.00;102248.84;253615;1112;104363;-80
2021/03/01 08:07:43;;;;;;;17.17;12.93;;;;;;;2.01;100.00;102256.34;253578;1112;104348;-80
2021/03/01 08:12:48;;;;;;;17.27;12.13;;;;;;;2.01;100.00;102272.13;253862;1109;104326;-78
2021/03/01 08:17:51;;;;;;;19.87;13.70;;;;;;;1.90;100.00;102271.86;253990;1112;104265;-79
2021/03/01 08:23:04;;;;;;;19.30;14.03;;;;;;;1.96;100.00;102289.55;253564;1111;104441;-81
2021/03/01 08:28:06;;;;;;;18.13;13.47;;;;;;;2.05;100.00;102281.88;253491;1112;104697;-80
2021/03/01 08:33:10;;;;;;;19.27;12.13;;;;;;;2.00;100.00;102286.13;253692;1110;104262;-80
2021/03/01 08:38:13;;;;;;;20.43;13.13;;;;;;;1.97;100.00;102293.97;253744;1112;104316;-79
2021/03/01 08:43:52;;;;;;;18.27;13.78;;;;;;;2.16;100.00;102291.80;253734;1111;105601;-79
2021/03/01 08:48:56;;;;;;;14.43;10.58;;;;;;;1.93;100.00;102302.61;253617;1111;104396;-80
2021/03/01 08:53:58;;;;;;;16.15;11.85;;;;;;;1.93;100.00;102310.49;256955;1109;104696;-77
2021/03/01 08:58:59;;;;;;;18.77;12.03;;;;;;;2.23;100.00;102320.92;256856;1109;104277;-78
2021/03/01 09:04:00;;;;;;;16.07;11.88;;;;;;;2.36;100.00;102310.72;259430;1110;102820;-79
2021/03/01 09:09:04;;;;;;;15.85;11.00;;;;;;;2.29;100.00;102320.19;254628;1112;104272;-79
2021/03/01 09:14:07;;;;;;;24.87;17.32;;;;;;;2.41;100.00;102329.23;253911;1112;104428;-78
2021/03/01 09:19:13;;;;;;;19.50;15.32;;;;;;;2.55;100.00;102327.83;253644;1112;104319;-78
2021/03/01 09:24:14;;;;;;;23.05;18.17;;;;;;;2.41;100.00;102337.12;253533;1112;104325;-79
2021/03/01 09:29:22;;;;;;;23.35;16.10;;;;;;;2.27;100.00;102329.78;254282;1111;104354;-79
2021/03/01 09:34:28;;;;;;;19.25;14.58;;;;;;;2.35;100.00;102328.23;254053;1109;104347;-80
2021/03/01 09:39:30;;;;;;;18.95;14.28;;;;;;;2.54;100.00;102328.68;253654;1111;104744;-80
2021/03/01 09:44:35;;;;;;;16.70;11.43;;;;;;;2.23;100.00;102333.20;253710;1112;104743;-79
2021/03/01 09:49:40;;;;;;;19.95;13.65;;;;;;;2.33;100.00;102329.93;253799;1109;104345;-81
2021/03/01 09:54:41;;;;;;;21.67;14.53;;;;;;;2.43;100.00;102338.07;253756;1110;104254;-78
2021/03/01 09:59:43;;;;;;;20.12;15.18;;;;;;;2.29;100.00;102346.52;253841;1111;104261;-79
2021/03/01 10:04:46;;;;;;;24.00;17.05;;;;;;;2.41;100.00;102360.82;253926;1111;104322;-78
2021/03/01 10:09:49;;;;;;;21.33;15.08;;;;;;;2.43;100.00;102348.59;253733;1112;104360;-78
2021/03/01 10:14:59;;;;;;;22.58;17.90;;;;;;;2.51;100.00;102352.31;253639;1110;104312;-79
2021/03/01 10:20:13;;;;;;;20.92;14.03;;;;;;;2.40;100.00;102354.68;253586;1110;104430;-79
2021/03/01 10:25:14;;;;;;;20.10;15.93;;;;;;;2.37;100.00;102358.13;253533;1112;104354;-77
2021/03/01 10:30:17;;;;;;;24.72;18.75;;;;;;;2.44;100.00;102361.79;253935;1111;104351;-78
2021/03/01 10:35:19;;;;;;;24.20;17.35;;;;;;;2.43;100.00;102370.56;253572;1112;105691;-79
2021/03/01 10:40:25;;;;;;;22.17;16.87;;;;;;;2.41;100.00;102363.45;253464;1110;105030;-78
2021/03/01 10:45:42;;;;;;;22.25;16.40;;;;;;;2.38;100.00;102361.64;253270;1111;104261;-79
2021/03/01 10:50:43;;;;;;;22.67;13.32;;;;;;;2.53;100.00;102355.89;253198;1112;104269;-80
2021/03/01 10:55:45;;;;;;;24.12;18.27;;;;;;;2.57;100.00;102355.09;253318;1110;104348;-78
2021/03/01 11:00:47;;;;;;;22.80;17.23;;;;;;;2.45;100.00;102357.44;253374;1112;104408;-77
2021/03/01 11:05:49;;;;;;;22.20;17.52;;;;;;;2.39;100.00;102348.54;253599;1112;104695;-80
2021/03/01 11:10:51;;;;;;;23.98;17.80;;;;;;;2.53;100.00;102346.23;254366;1111;104347;-80
2021/03/01 11:15:52;;;;;;;19.55;14.93;;;;;;;2.65;100.00;102350.91;254192;1111;104389;-78
2021/03/01 11:20:54;;;;;;;24.40;18.65;;;;;;;2.54;100.00;102342.75;253884;1112;104245;-79
2021/03/01 11:25:56;;;;;;;21.90;18.62;;;;;;;2.48;100.00;102344.33;253601;1112;104695;-79
2021/03/01 11:30:58;;;;;;;18.67;14.87;;;;;;;2.55;100.00;102333.09;253846;1111;104245;-78
2021/03/01 11:36:01;;;;;;;17.15;12.93;;;;;;;2.43;100.00;102324.91;253410;1111;104345;-79
2021/03/01 11:41:03;;;;;;;18.30;14.33;;;;;;;2.71;100.00;102322.09;253806;1112;104640;-80
2021/03/01 11:46:04;;;;;;;23.73;17.73;;;;;;;2.78;100.00;102315.23;253792;1110;104340;-80
2021/03/01 11:51:05;;;;;;;16.48;13.25;;;;;;;2.73;100.00;102316.84;256049;1111;104258;-78
2021/03/01 11:56:09;;;;;;;18.77;13.72;;;;;;;2.74;100.00;102308.09;259116;1111;104188;-77
2021/03/01 12:01:11;;;;;;;16.62;13.28;;;;;;;2.82;100.00;102309.17;255658;1112;104635;-79
2021/03/01 12:06:12;;;;;;;14.70;11.70;;;;;;;2.79;100.00;102309.08;254264;1112;104274;-79
2021/03/01 12:11:13;;;;;;;16.23;11.13;;;;;;;2.67;100.00;102307.08;254813;1111;104498;-80
2021/03/01 12:16:15;;;;;;;24.25;16.60;;;;;;;2.68;100.00;102316.73;254043;1111;104941;-79
2021/03/01 12:21:16;;;;;;;25.37;17.37;;;;;;;2.59;100.00;102319.17;254640;1112;104303;-79
2021/03/01 12:26:17;;;;;;;22.73;16.35;;;;;;;2.71;100.00;102308.92;256360;1112;104341;-78
2021/03/01 12:31:18;;;;;;;19.67;15.25;;;;;;;2.72;100.00;102320.33;256541;1112;104242;-79
2021/03/01 12:36:21;;;;;;;17.15;12.15;;;;;;;2.58;100.00;102312.13;256405;1110;104283;-79
2021/03/01 12:41:22;;;;;;;23.15;17.27;;;;;;;2.60;100.00;102312.14;256329;1112;104194;-78
2021/03/01 12:46:24;;;;;;;18.05;13.75;;;;;;;2.65;100.00;102319.31;256160;1112;104242;-78
2021/03/01 12:51:25;;;;;;;35.30;24.18;;;;;;;2.69;100.00;102312.38;254880;1112;104271;-80
2021/03/01 12:56:26;;;;;;;18.90;13.72;;;;;;;2.66;100.00;102320.19;253639;1109;104274;-81
2021/03/01 13:01:28;;;;;;;18.35;14.38;;;;;;;2.61;100.00;102322.70;253671;1112;104805;-80
2021/03/01 13:06:29;;;;;;;22.00;16.73;;;;;;;2.68;100.00;102311.47;253709;1111;104617;-78
2021/03/01 13:11:30;;;;;;;24.35;17.87;;;;;;;2.70;100.00;102307.14;254175;1112;112369;-79
2021/03/01 13:16:32;;;;;;;27.30;18.25;;;;;;;2.80;100.00;102323.16;253598;1112;104348;-78
2021/03/01 13:21:33;;;;;;;27.48;19.40;;;;;;;2.80;100.00;102312.63;253749;1112;104283;-79
2021/03/01 13:26:35;;;;;;;24.43;16.45;;;;;;;2.76;100.00;102318.66;253533;1112;104454;-80
2021/03/01 13:31:36;;;;;;;20.70;14.53;;;;;;;2.71;100.00;102321.21;253449;1111;104268;-79
2021/03/01 13:36:37;;;;;;;33.38;21.42;;;;;;;2.66;100.00;102313.20;253382;1112;104318;-78
2021/03/01 13:41:38;;;;;;;22.47;16.20;;;;;;;2.78;100.00;102316.95;254355;1111;105664;-80
2021/03/01 13:46:43;;;;;;;26.02;19.25;;;;;;;2.80;100.00;102317.89;253451;1111;104695;-79
2021/03/01 13:51:44;;;;;;;26.35;17.45;;;;;;;2.78;100.00;102303.79;253557;1111;105505;-80
2021/03/01 13:56:45;;;;;;;24.45;15.48;;;;;;;2.76;100.00;102305.48;253648;1110;104312;-79
2021/03/01 14:01:47;;;;;;;19.85;14.15;;;;;;;2.64;100.00;102295.59;253543;1112;104264;-80
2021/03/01 14:06:48;;;;;;;25.32;16.67;;;;;;;2.74;100.00;102287.03;253609;1112;104351;-79
2021/03/01 14:11:49;;;;;;;25.00;15.85;;;;;;;2.73;100.00;102284.37;253842;1112;104271;-79
2021/03/01 14:16:50;;;;;;;23.50;15.80;;;;;;;2.84;100.00;102277.58;254385;1112;104274;-79
2021/03/01 14:21:52;;;;;;;23.40;16.17;;;;;;;2.80;100.00;102265.21;254313;1110;104587;-79
2021/03/01 14:26:53;;;;;;;27.73;19.87;;;;;;;2.91;100.00;102273.36;255719;1112;104279;-78
2021/03/01 14:31:54;;;;;;;20.90;15.32;;;;;;;2.82;100.00;102271.42;254436;1111;104332;-79
2021/03/01 14:36:55;;;;;;;28.07;20.55;;;;;;;2.92;100.00;102260.20;253848;1112;104274;-80
2021/03/01 14:41:57;;;;;;;27.67;19.52;;;;;;;2.81;100.00;102277.53;254657;1112;104520;-81
2021/03/01 14:46:58;;;;;;;18.42;13.95;;;;;;;2.70;100.00;102270.27;253988;1112;104246;-78
2021/03/01 14:51:59;;;;;;;20.00;15.08;;;;;;;2.79;100.00;102269.58;255586;1111;104277;-79
2021/03/01 14:57:00;;;;;;;20.32;15.50;;;;;;;2.77;100.00;102257.23;254844;1111;105204;-79
2021/03/01 15:02:02;;;;;;;24.47;17.95;;;;;;;2.79;100.00;102252.89;254451;1112;104345;-79
2021/03/01 15:07:03;;;;;;;27.00;19.20;;;;;;;2.87;100.00;102241.66;253671;1111;104434;-79
2021/03/01 15:12:05;;;;;;;27.43;19.97;;;;;;;2.92;100.00;102241.77;253536;1112;104265;-81
2021/03/01 15:17:06;;;;;;;23.70;16.55;;;;;;;2.81;100.00;102235.39;254170;1112;104386;-80
2021/03/01 15:22:08;;;;;;;27.10;18.25;;;;;;;2.86;100.00;102237.24;253848;1112;104315;-78
2021/03/01 15:27:09;;;;;;;21.97;18.45;;;;;;;2.90;100.00;102224.16;253864;1111;104663;-80
2021/03/01 15:32:10;;;;;;;28.77;19.17;;;;;;;2.92;100.00;102233.86;254446;1112;104274;-80
2021/03/01 15:37:12;;;;;;;23.80;18.00;;;;;;;2.92;100.00;102236.50;254842;1111;104328;-79
2021/03/01 15:42:13;;;;;;;25.00;19.23;;;;;;;2.85;100.00;102242.48;254785;1112;104248;-78
2021/03/01 15:47:16;;;;;;;26.17;20.43;;;;;;;2.97;100.00;102226.94;253883;1111;104242;-80
2021/03/01 15:52:18;;;;;;;24.23;15.75;;;;;;;2.91;100.00;102228.57;256674;1111;104320;-80
2021/03/01 15:57:20;;;;;;;27.25;18.17;;;;;;;2.80;100.00;102238.88;257664;1112;104188;-80
2021/03/01 16:02:21;;;;;;;27.27;20.88;;;;;;;2.81;100.00;102235.39;257705;1111;104271;-79
2021/03/01 16:07:22;;;;;;;28.53;21.97;;;;;;;2.92;100.00;102233.86;254284;1112;104278;-81
2021/03/01 16:12:24;;;;;;;29.55;22.95;;;;;;;2.99;100.00;102234.89;253976;1112;104357;-79
2021/03/01 16:17:25;;;;;;;29.90;23.73;;;;;;;2.95;100.00;102233.94;253833;1111;104317;-79
2021/03/01 16:22:26;;;;;;;26.70;18.42;;;;;;;2.89;100.00;102236.41;253820;1112;104338;-79
2021/03/01 16:27:27;;;;;;;22.73;16.83;;;;;;;2.86;100.00;102250.41;253380;1110;104264;-80
2021/03/01 16:32:29;;;;;;;27.65;17.95;;;;;;;2.98;100.00;102255.06;253328;1111;104514;-79
2021/03/01 16:37:31;;;;;;;24.73;18.33;;;;;;;2.85;100.00;102253.90;253241;1112;104286;-80
2021/03/01 16:42:36;;;;;;;22.40;16.75;;;;;;;2.82;100.00;102260.87;253271;1111;104275;-79
2021/03/01 16:47:39;;;;;;;25.48;21.35;;;;;;;2.89;100.00;102257.49;253334;1111;104352;-80
2021/03/01 16:52:41;;;;;;;25.50;19.95;;;;;;;2.89;100.00;102261.88;253344;1111;104392;-79
2021/03/01 16:57:52;;;;;;;27.98;20.45;;;;;;;2.76;100.00;102258.98;253306;1111;104315;-80
2021/03/01 17:02:55;;;;;;;25.55;19.15;;;;;;;2.70;100.00;102249.20;253421;1111;104370;-79
2021/03/01 17:08:01;;;;;;;26.37;19.70;;;;;;;2.63;100.00;102249.91;253335;1112;104274;-80
2021/03/01 17:13:10;;;;;;;27.13;19.05;;;;;;;2.56;100.00;102240.09;253814;1112;104453;-80
2021/03/01 17:18:12;;;;;;;28.23;18.55;;;;;;;2.64;100.00;102251.70;256414;1112;104251;-82
2021/03/01 17:23:17;;;;;;;21.07;15.28;;;;;;;2.68;100.00;102235.09;253689;1111;104389;-79
2021/03/01 17:28:18;;;;;;;27.52;18.42;;;;;;;2.59;100.00;102245.45;253447;1110;104255;-81
2021/03/01 17:33:24;;;;;;;30.05;21.25;;;;;;;2.63;100.00;102242.02;254011;1112;105063;-78
2021/03/01 17:38:28;;;;;;;31.82;23.12;;;;;;;2.79;100.00;102248.50;253694;1112;104383;-80
2021/03/01 17:43:30;;;;;;;28.40;21.65;;;;;;;2.65;100.00;102240.31;253760;1112;104258;-79
2021/03/01 17:48:34;;;;;;;30.17;21.05;;;;;;;2.62;100.00;102237.59;253554;1111;104318;-81
2021/03/01 17:53:42;;;;;;;32.48;24.47;;;;;;;2.58;100.00;102233.13;253963;1112;104401;-80
2021/03/01 17:58:44;;;;;;;36.23;25.25;;;;;;;2.52;100.00;102239.14;253969;1111;104274;-80
2021/03/01 18:03:55;;;;;;;34.50;25.55;;;;;;;2.63;100.00;102228.84;255962;1112;105227;-78
2021/03/01 18:09:03;;;;;;;29.50;20.95;;;;;;;2.55;100.00;102233.05;254527;1112;104652;-79
2021/03/01 18:14:07;;;;;;;39.78;26.23;;;;;;;2.55;100.00;102222.52;254007;1112;104521;-80
2021/03/01 18:19:09;;;;;;;38.78;27.82;;;;;;;2.49;100.00;102232.91;253684;1112;104355;-79
2021/03/01 18:24:12;;;;;;;30.33;21.07;;;;;;;2.43;100.00;102225.78;253641;1111;104367;-80
2021/03/01 18:29:13;;;;;;;37.83;26.82;;;;;;;2.46;100.00;102222.33;253540;1112;104354;-81
2021/03/01 18:34:23;;;;;;;39.45;26.80;;;;;;;2.57;100.00;102218.18;253276;1112;104320;-80
2021/03/01 18:39:31;;;;;;;46.53;31.37;;;;;;;2.43;100.00;102216.98;253303;1111;104673;-81
2021/03/01 18:44:37;;;;;;;42.43;28.62;;;;;;;2.49;100.00;102232.91;253327;1111;104524;-78
2021/03/01 18:49:38;;;;;;;48.80;34.00;;;;;;;2.46;100.00;102217.06;253328;1110;104360;-83
2021/03/01 18:54:39;;;;;;;51.80;33.78;;;;;;;2.47;100.00;102218.81;253606;1111;104347;-80
2021/03/01 18:59:43;;;;;;;53.83;34.27;;;;;;;2.49;100.00;102214.48;253629;1112;104325;-80
2021/03/01 19:04:45;;;;;;;58.37;35.50;;;;;;;2.54;100.00;102218.09;253802;1112;104253;-81
2021/03/01 19:09:46;;;;;;;61.88;37.40;;;;;;;2.50;100.00;102219.77;253900;1111;104393;-80
2021/03/01 19:14:47;;;;;;;55.40;34.97;;;;;;;2.51;100.00;102223.31;254816;1112;104271;-80
2021/03/01 19:19:48;;;;;;;58.60;37.25;;;;;;;2.50;100.00;102216.27;255181;1112;105163;-81
2021/03/01 19:24:50;;;;;;;62.10;37.15;;;;;;;2.43;100.00;102211.72;258930;1112;104265;-81
2021/03/01 19:29:51;;;;;;;52.43;34.55;;;;;;;2.55;100.00;102217.25;257563;1112;104348;-80
2021/03/01 19:34:53;;;;;;;64.27;40.10;;;;;;;2.56;100.00;102216.40;257677;1112;105585;-80
2021/03/01 19:39:55;;;;;;;48.15;29.00;;;;;;;2.43;100.00;102209.08;254014;1112;104736;-80
2021/03/01 19:44:56;;;;;;;51.45;32.67;;;;;;;2.51;100.00;102208.39;253619;1110;105146;-81
2021/03/01 19:49:57;;;;;;;62.50;38.10;;;;;;;2.54;100.00;102205.84;253631;1112;104341;-81
2021/03/01 19:54:59;;;;;;;55.25;33.53;;;;;;;2.51;100.00;102205.76;256565;1112;104274;-80
2021/03/01 20:00:01;;;;;;;43.25;26.35;;;;;;;2.48;100.00;102210.06;256923;1112;104341;-81
2021/03/01 20:05:04;;;;;;;54.33;35.30;;;;;;;2.36;100.00;102211.58;258310;1112;104248;-81
2021/03/01 20:10:09;;;;;;;52.08;32.95;;;;;;;2.43;100.00;102196.83;255827;1112;104419;-80
2021/03/01 20:15:11;;;;;;;49.73;29.87;;;;;;;2.38;100.00;102198.44;258684;1112;104133;-80
2021/03/01 20:20:13;;;;;;;60.58;37.55;;;;;;;2.36;100.00;102195.78;253564;1112;104293;-80
2021/03/01 20:25:15;;;;;;;52.43;32.60;;;;;;;2.43;100.00;102194.20;254270;1111;104405;-79
2021/03/01 20:30:18;;;;;;;58.23;39.65;;;;;;;2.46;100.00;102211.80;256954;1112;104236;-80
2021/03/01 20:35:19;;;;;;;56.60;34.85;;;;;;;2.31;100.00;102207.95;256951;1111;104344;-81
2021/03/01 20:40:21;;;;;;;54.13;34.38;;;;;;;2.31;100.00;102221.13;253246;1112;104357;-80
2021/03/01 20:45:22;;;;;;;51.40;33.48;;;;;;;2.35;100.00;102209.80;253649;1112;104402;-78
2021/03/01 20:50:25;;;;;;;57.43;36.00;;;;;;;2.43;100.00;102207.36;256692;1112;104274;-81
2021/03/01 20:55:26;;;;;;;61.30;38.98;;;;;;;2.39;100.00;102206.40;256412;1111;104711;-80
2021/03/01 21:00:28;;;;;;;57.05;33.08;;;;;;;2.32;100.00;102201.84;254277;1111;104428;-80
2021/03/01 21:05:29;;;;;;;60.15;39.00;;;;;;;2.41;100.00;102213.41;254138;1112;104350;-80
2021/03/01 21:10:31;;;;;;;51.70;35.92;;;;;;;2.35;100.00;102199.27;254508;1112;104275;-82
2021/03/01 21:15:32;;;;;;;56.60;36.25;;;;;;;2.37;100.00;102197.56;254123;1112;104342;-79
2021/03/01 21:20:33;;;;;;;39.90;21.55;;;;;;;2.20;100.00;102191.01;254038;1111;104251;-80
2021/03/01 21:25:35;;;;;;;52.20;34.90;;;;;;;2.20;100.00;102185.75;254583;1112;104402;-80
2021/03/01 21:30:36;;;;;;;52.13;34.18;;;;;;;2.23;100.00;102177.94;254889;1112;104284;-78
2021/03/01 21:35:38;;;;;;;59.35;38.58;;;;;;;2.34;100.00;102181.69;255308;1111;104354;-82
2021/03/01 21:40:41;;;;;;;62.17;38.83;;;;;;;2.30;100.00;102174.59;254460;1111;104399;-81
2021/03/01 21:45:42;;;;;;;55.35;37.15;;;;;;;2.34;100.00;102176.42;254200;1111;104345;-79
2021/03/01 21:50:53;;;;;;;52.67;33.48;;;;;;;2.26;100.00;102177.99;253696;1112;104992;-81
2021/03/01 21:55:55;;;;;;;47.53;28.52;;;;;;;2.14;100.00;102172.45;253571;1112;104265;-81
2021/03/01 22:00:57;;;;;;;54.25;32.95;;;;;;;2.37;100.00;102175.61;255304;1110;104326;-81
2021/03/01 22:05:59;;;;;;;53.17;35.03;;;;;;;2.41;100.00;102168.66;253843;1111;104319;-78
2021/03/01 22:11:01;;;;;;;57.15;39.05;;;;;;;2.31;100.00;102165.84;253445;1112;104392;-79
2021/03/01 22:16:02;;;;;;;52.38;33.95;;;;;;;2.20;100.00;102157.70;253400;1112;104437;-80
2021/03/01 22:21:05;;;;;;;45.70;28.45;;;;;;;2.14;100.00;102167.19;253241;1112;104289;-80
2021/03/01 22:26:06;;;;;;;55.15;36.10;;;;;;;2.14;100.00;102167.19;253330;1112;104576;-79